Nearby METAR Reports

 

EGNT - Newcastle, United Kingdom
Distance from station: NNE 1mi, 2km
Updated: 26/06/2019 21:50
Clear
Clear
 Wind from varies
Wind: varies 2 mph , 4 km/h
Temperature: 9°C
Dew Point: 8°C
Humidity: 94%
Barometer: 1033 hPa
Summary: Clear
Visibility: greater than 7 miles , 10 km
2019/06/26 20:50 EGNT 262050Z VRB02KT CAVOK 09/08 Q1033
EGQM - Boulmer, United Kingdom
Distance from station: N 29mi, 47km
Updated: 26/06/2019 21:50
Clear
Clear
 Wind from S
Wind: S 5 mph , 7 km/h
Temperature: 9°C
Wind Chill: 8°C
Dew Point: 8°C
Humidity: 94%
Barometer: 1033 hPa
Clouds: Clear
Visibility: 6 miles , 10 km
2019/06/26 20:50 EGQM 262050Z AUTO 19004KT 9999 NCD 09/08 Q1033
 
EGOM - Spadeadam, United Kingdom
Distance from station: W 34mi, 54km
Updated: 26/06/2019 20:50
Clear
Clear
 Wind from ESE
Wind: ESE 6 mph , 9 km/h
Temperature: 14°C
Dew Point: 9°C
Humidity: 72%
Barometer: 1031 hPa
Clouds: Clear
Visibility: 6 miles , 10 km
2019/06/26 19:50 EGOM 261950Z AUTO 11005KT 9999 NCD 14/09 Q1031
EGNV - Tees-Side, United Kingdom
Distance from station: SSE 35mi, 57km
Updated: 26/06/2019 21:50
Clear
Clear
 Wind from NE
Wind: NE 5 mph , 7 km/h
Temperature: 10°C
Wind Chill: 9°C
Dew Point: 7°C
Humidity: 82%
Barometer: 1033 hPa
Summary: Clear
Visibility: greater than 7 miles , 10 km
2019/06/26 20:50 EGNV 262050Z 04004KT CAVOK 10/07 Q1033
 
EGNC - Carlisle, United Kingdom
Distance from station: W 45mi, 72km
Updated: 20/06/2019 14:50
NOT Current
Nearby showers, Partly cloudy
Nearby showers, Partly cloudy
 Wind from W
Wind: W 16 mph , 26 km/h
Temperature: 16°C
Dew Point: 8°C
Humidity: 59%
Barometer: 1009 hPa
Summary: Nearby Showers
Clouds: Partly cloudy
Visibility: 6 miles , 10 km
Cloud details: Partly cloudy 1067 m
2019/06/20 13:50 EGNC 201350Z 26014KT 230V300 9999 VCSH SCT035TCU 16/08 Q1009
EGXE - Leeming Raf, United Kingdom
Distance from station: S 50mi, 81km
Updated: 26/06/2019 20:50
Clear
Clear
 Wind from N
Wind: N 5 mph , 7 km/h
Temperature: 12°C
Dew Point: 8°C
Humidity: 77%
Barometer: 1033 hPa
Clouds: Clear
Visibility: 6 miles , 10 km
2019/06/26 19:50 EGXE 261950Z AUTO 01004KT 9999 NCD 12/08 Q1033
 
EGXZ - Topcliffe Raf, United Kingdom
Distance from station: SSE 57mi, 91km
Updated: 26/06/2019 20:50
Clear
Clear
 Wind from NNW
Wind: NNW 5 mph , 7 km/h
Temperature: 13°C
Dew Point: 9°C
Humidity: 77%
Barometer: 1032 hPa
Clouds: Clear
Visibility: 6 miles , 10 km
2019/06/26 19:50 EGXZ 261950Z AUTO 34004KT 9999 NCD 13/09 Q1032
EGXU - Linton-On-Ouse R, United Kingdom
Distance from station: SSE 68mi, 110km
Updated: 26/06/2019 20:50
Partly cloudy
Partly cloudy
 Wind from E
Wind: E 3 mph , 6 km/h
Temperature: 13°C
Dew Point: 10°C
Humidity: 82%
Barometer: 1032 hPa
Clouds: Partly cloudy
Visibility: 6 miles , 10 km
Cloud details: Partly cloudy 640 m
2019/06/26 19:50 EGXU 261950Z AUTO 10003KT 9999 // SCT021/// 13/10 Q1032
 
EGNM - Leeds And Bradfo, United Kingdom
Distance from station: S 78mi, 126km
Updated: 26/06/2019 21:50
Mostly cloudy
Mostly cloudy
 Wind from varies
Wind: varies 3 mph , 6 km/h
Temperature: 11°C
Dew Point: 10°C
Humidity: 94%
Barometer: 1032 hPa
Clouds: Mostly cloudy
Visibility: 6 miles , 10 km
Cloud details: Few Clouds 335 m
Mostly cloudy 396 m
2019/06/26 20:50 EGNM 262050Z VRB03KT 9999 FEW011 BKN013 11/10 Q1032
EGPH - Edinburgh Airpor, United Kingdom
Distance from station: NW 92mi, 148km
Updated: 26/06/2019 21:50
Clear
Clear
 Wind from NE
Wind: NE 6 mph , 9 km/h
Temperature: 12°C
Dew Point: 11°C
Humidity: 94%
Barometer: 1031 hPa
Summary: Clear
Visibility: greater than 7 miles , 10 km
2019/06/26 20:50 EGPH 262050Z 04005KT CAVOK 12/11 Q1031
 
EGXV - Leconfield (aut), United Kingdom
Distance from station: SE 93mi, 150km
Updated: 26/06/2019 20:50
Overcast
Overcast
 Wind from NNE
Wind: NNE 5 mph , 7 km/h
Temperature: 12°C
Dew Point: 10°C
Humidity: 88%
Barometer: 1032 hPa
Clouds: Overcast
Visibility: 6 miles , 10 km
Cloud details: Overcast 457 m
2019/06/26 19:50 EGXV 261950Z AUTO 03004KT 9999 OVC015/// 12/10 Q1032
EGNO - Wharton, United Kingdom
Distance from station: SSW 99mi, 159km
Updated: 26/06/2019 19:50
NOT Current
Few Clouds
Few Clouds
 Wind from E
Wind: E 12 mph , 19 km/h
Temperature: 17°C
Dew Point: 13°C
Humidity: 77%
Barometer: 1031 hPa
Clouds: Few Clouds
Visibility: 6 miles , 10 km
Cloud details: Few Clouds 823 m
2019/06/26 18:50 EGNO 261850Z 09010KT 070V130 9999 FEW027 17/13 Q1031
 
EGNH - Blackpool Airpor, United Kingdom
Distance from station: SSW 100mi, 161km
Updated: 26/06/2019 20:50
Clear
Clear
 Wind from ESE
Wind: ESE 13 mph , 20 km/h
Temperature: 16°C
Dew Point: 11°C
Humidity: 72%
Barometer: 1031 hPa
Summary: Clear
Visibility: greater than 7 miles , 10 km
2019/06/26 19:50 EGNH 261950Z 11011KT CAVOK 16/11 Q1031